M I D A S
Marine Information and Data Acquisition System
Tripno 272 of the Zeeleeuw from 2002-05-02 06:36:12 to 2002-05-02 16:54:28
Back to CruiseResearch ActivitiesStationsMapUnderway DataData graphs

EquipmentUnitsComment
TimeDGPSUTC
LatitudeDGPSDM.mWGS84
LongitudeDGPSDM.mWGS84
HeadingGyrodeg 
SOGDGPSknotsSpeed over ground
COGDGPSdegCourse over ground
DepthEcho soundermeters200 kHz
Missing or incorrect values are displayed as -999
Navigation data collected by the RV Zeeleeuw from 2002-05-02 06:36:12 to 2002-05-02 16:54:28
Time Latitude Longitude Heading SOG COG Depth
2002-05-02 06:37:16 51°13.691 2°55.845 98.2 3.3 276.4 -999
2002-05-02 06:38:16 51°13.695 2°55.755 95.7 3.2 272.3 15.3
2002-05-02 06:39:16 51°13.703 2°55.732 57.3 2.4 55.5 14
2002-05-02 06:40:16 51°13.7 2°55.734 30.5 1.8 208.9 -999
2002-05-02 06:41:16 51°13.681 2°55.718 18.3 0.5 210.5 13.9
2002-05-02 06:42:16 51°13.682 2°55.716 0.7 0.3 353.1 14.1
2002-05-02 06:43:16 51°13.691 2°55.712 350.2 0.7 342.7 14
2002-05-02 06:44:16 51°13.71 2°55.701 343.7 1.7 337.4 13.2
2002-05-02 06:45:16 51°13.762 2°55.667 343.7 4.3 339.3 11.8
2002-05-02 06:46:16 51°13.841 2°55.62 339.3 5.4 336.6 11.2
2002-05-02 06:47:15 51°13.926 2°55.558 341 5.8 337.3 11.2
2002-05-02 06:48:16 51°14.019 2°55.501 340 5.9 337.6 11.6
2002-05-02 06:49:16 51°14.112 2°55.441 341.3 5.9 338.1 11.6
2002-05-02 06:50:16 51°14.2 2°55.372 331 5.9 328.2 11.7
2002-05-02 06:51:15 51°14.272 2°55.269 313.7 6 310.8 11.7
2002-05-02 06:52:15 51°14.331 2°55.138 306.8 6.1 302.7 11.4
2002-05-02 06:53:15 51°14.396 2°54.957 301.8 10.5 297.9 10.9
2002-05-02 06:54:15 51°14.494 2°54.683 305.2 12.3 300.8 11
2002-05-02 06:55:16 51°14.6 2°54.401 304.2 12.1 301.2 11
2002-05-02 06:56:16 51°14.704 2°54.125 304.7 12.2 301.5 11
2002-05-02 06:57:16 51°14.81 2°53.852 301.3 12 299.5 10.6
2002-05-02 06:58:16 51°14.898 2°53.558 299.7 12.5 295.6 10.6
2002-05-02 06:59:15 51°14.995 2°53.262 301.7 12.9 297.7 10.8
2002-05-02 07:00:16 51°15.095 2°52.95 301 13 297 11
2002-05-02 07:01:16 51°15.193 2°52.642 301.2 13 296.6 11.8
2002-05-02 07:02:16 51°15.292 2°52.337 301.3 13.3 297.4 12.3
2002-05-02 07:03:15 51°15.392 2°52.037 301.5 12.6 298.1 12.7
2002-05-02 07:04:15 51°15.488 2°51.747 301.8 12.3 297.8 13.1
2002-05-02 07:05:15 51°15.584 2°51.458 301.7 12.3 297.6 13.5
2002-05-02 07:06:16 51°15.676 2°51.157 295.8 12.7 292.3 13.7
2002-05-02 07:07:15 51°15.756 2°50.846 296.7 12.9 293.1 13.7
2002-05-02 07:08:16 51°15.786 2°50.507 270.5 12.9 267.3 13.6
2002-05-02 07:09:16 51°15.795 2°50.162 278.3 13.3 274.9 13.1
2002-05-02 07:10:16 51°15.814 2°49.802 277.5 13.7 274.4 11.7
2002-05-02 07:11:16 51°15.832 2°49.44 277.8 13.7 274.3 11.1
2002-05-02 07:12:15 51°15.855 2°49.085 280.2 13.8 277 11.6
2002-05-02 07:13:16 51°15.883 2°48.714 279.8 13.8 276.5 12.7
2002-05-02 07:14:16 51°15.917 2°48.352 287.7 13.8 283.8 14.5
2002-05-02 07:15:16 51°15.996 2°48.007 293.7 13.8 289.9 15.8
2002-05-02 07:16:15 51°16.072 2°47.668 295.5 13.8 291.6 16.3
2002-05-02 07:17:16 51°16.155 2°47.321 292.2 13.8 289.3 15.3
2002-05-02 07:18:15 51°16.23 2°46.983 292.7 13.7 290 13.3
2002-05-02 07:19:16 51°16.304 2°46.633 290.7 13.7 288 10.4
2002-05-02 07:20:16 51°16.371 2°46.29 287 13.4 285.4 9.5
2002-05-02 07:21:16 51°16.431 2°45.938 287.3 13.8 285.6 10.8
2002-05-02 07:22:16 51°16.501 2°45.59 293.7 13.8 291.1 10.9
2002-05-02 07:23:16 51°16.625 2°45.284 317.2 13.8 312.9 11.1
2002-05-02 07:24:16 51°16.804 2°45.055 328.5 13.9 323.8 12
2002-05-02 07:25:15 51°16.981 2°44.829 324.7 13.9 320.1 13.5
2002-05-02 07:26:16 51°17.161 2°44.588 323.7 13.8 319.4 16.6
2002-05-02 07:27:15 51°17.351 2°44.396 340.2 13.6 334.5 16.4
2002-05-02 07:28:16 51°17.52 2°44.368 21.8 8.1 13.5 17.4
2002-05-02 07:29:15 51°17.589 2°44.423 60.5 2.7 45.3 17.4
2002-05-02 07:30:16 51°17.599 2°44.451 95.2 0.9 70.1 17.3
2002-05-02 07:31:15 51°17.603 2°44.471 90.7 0.7 70.5 17.4
2002-05-02 07:32:16 51°17.608 2°44.487 78.8 0.6 61.2 17.4
2002-05-02 07:33:16 51°17.613 2°44.499 68.7 0.5 56.6 17.3
2002-05-02 07:34:16 51°17.619 2°44.507 60.3 0.4 38.9 17.1
2002-05-02 07:35:16 51°17.628 2°44.521 58 2 50 17.5
2002-05-02 07:36:16 51°17.609 2°44.618 151.8 5.1 146.6 17.5
2002-05-02 07:37:16 51°17.536 2°44.542 248.2 6.7 244.6 17.2
2002-05-02 07:38:15 51°17.54 2°44.396 286.2 4.9 281.9 17.4
2002-05-02 07:39:16 51°17.55 2°44.344 278 0.2 349.5 17.2
2002-05-02 07:40:17 51°17.552 2°44.339 273 0.3 286.4 -999
2002-05-02 07:41:16 51°17.554 2°44.328 268.8 0.4 277.5 16.5
2002-05-02 07:42:16 51°17.554 2°44.316 266.3 0.5 269.5 17.4
2002-05-02 07:43:16 51°17.553 2°44.303 261.2 0.5 259 17.5
2002-05-02 07:44:16 51°17.551 2°44.288 255.5 0.6 255.7 17.5
2002-05-02 07:45:16 51°17.548 2°44.271 250.7 0.7 252.4 17.6
2002-05-02 07:46:16 51°17.544 2°44.254 246.8 0.7 251.5 17.2
2002-05-02 07:47:15 51°17.54 2°44.235 245.7 0.8 247.7 17.2
2002-05-02 07:48:16 51°17.535 2°44.216 245.5 0.8 245.9 17.2
2002-05-02 07:49:16 51°17.529 2°44.197 245.2 0.8 245.8 17.1
2002-05-02 07:50:16 51°17.524 2°44.178 246.8 0.8 250 17.3
2002-05-02 07:51:15 51°17.52 2°44.158 248.7 0.8 248.6 17.2
2002-05-02 07:52:16 51°17.514 2°44.132 256.2 1.9 254.2 17.2
2002-05-02 07:53:16 51°17.554 2°44.038 346.8 5.9 334.9 16.9
2002-05-02 07:54:16 51°17.62 2°44.122 93.5 5.8 83.9 17
2002-05-02 07:55:16 51°17.562 2°44.276 116 7.7 113.9 17.1
2002-05-02 07:56:16 51°17.542 2°44.429 88.7 3.9 88.6 17
2002-05-02 07:57:16 51°17.549 2°44.45 45.5 0.4 20.3 17
2002-05-02 07:58:15 51°17.557 2°44.449 28.8 0.5 346.8 17
2002-05-02 07:59:16 51°17.565 2°44.445 24.8 0.5 336.8 17
2002-05-02 08:00:16 51°17.572 2°44.439 21.5 0.5 331.3 17
2002-05-02 08:01:16 51°17.578 2°44.431 17.8 0.5 319.9 17.1
2002-05-02 08:02:16 51°17.583 2°44.423 14.2 0.5 311 17
2002-05-02 08:03:16 51°17.587 2°44.413 12.2 0.4 304.2 17.1
2002-05-02 08:04:16 51°17.591 2°44.403 9.7 0.4 296.9 17.1
2002-05-02 08:05:15 51°17.593 2°44.393 7.5 0.4 289.5 17.1
2002-05-02 08:06:16 51°17.595 2°44.382 6.8 0.4 288 16.9
2002-05-02 08:07:16 51°17.6 2°44.372 10.8 0.6 326.4 17
2002-05-02 08:08:15 51°17.613 2°44.364 15.8 1 346.5 17.1
2002-05-02 08:09:16 51°17.631 2°44.362 31.5 1.1 4.4 17.1
2002-05-02 08:10:16 51°17.647 2°44.37 55.3 0.8 29.4 16.3
2002-05-02 08:11:16 51°17.654 2°44.379 68.2 0.5 47.9 16.6
2002-05-02 08:12:16 51°17.657 2°44.393 86.8 0.6 89.1 17
2002-05-02 08:13:16 51°17.652 2°44.41 115 0.9 131.5 17
2002-05-02 08:14:16 51°17.634 2°44.422 143.3 1.2 166.6 16.8
2002-05-02 08:15:16 51°17.611 2°44.42 170.8 1.5 191.1 16.8
2002-05-02 08:16:15 51°17.586 2°44.403 196.8 1.8 210.5 16.9
2002-05-02 08:17:16 51°17.562 2°44.371 221.7 1.9 227.6 16.7
2002-05-02 08:18:16 51°17.545 2°44.327 243.8 1.9 243.1 16.9
2002-05-02 08:19:16 51°17.534 2°44.279 263.2 1.9 254.2 17
2002-05-02 08:20:16 51°17.529 2°44.23 282.8 1.8 267.2 16.7
2002-05-02 08:21:16 51°17.531 2°44.184 301.2 1.7 279 16.7
2002-05-02 08:22:16 51°17.539 2°44.142 321 1.6 290.9 16.9
2002-05-02 08:23:16 51°17.561 2°44.086 315.2 4.1 305.1 16.7
2002-05-02 08:24:15 51°17.571 2°43.89 263.3 11.1 261.4 14.8
2002-05-02 08:25:16 51°17.544 2°43.552 269.2 13 266.8 13.4
2002-05-02 08:26:15 51°17.506 2°43.218 257.8 13.2 256.8 11.5
2002-05-02 08:27:16 51°17.474 2°42.868 269.3 13.2 267.2 11.8
2002-05-02 08:28:16 51°17.444 2°42.525 251.7 13.1 250.3 20.3
2002-05-02 08:29:16 51°17.385 2°42.193 262.5 13 260.2 22.3
2002-05-02 08:30:16 51°17.335 2°41.856 259.8 13 256.6 23
2002-05-02 08:31:16 51°17.285 2°41.521 258.8 12.8 256 23.5
2002-05-02 08:32:16 51°17.236 2°41.316 242.5 5.9 241.2 23.3
2002-05-02 08:33:16 51°17.223 2°41.26 298 0.8 215.5 23.2
2002-05-02 08:34:17 51°17.208 2°41.255 308.8 1.6 272.1 -999
2002-05-02 08:35:16 51°17.255 2°41.225 31.3 4 17.1 23.2
2002-05-02 08:36:16 51°17.28 2°41.343 96.7 5.9 93.8 23.3
2002-05-02 08:37:16 51°17.278 2°41.413 64.5 0.3 79.9 23.4
2002-05-02 08:38:16 51°17.281 2°41.414 39.5 0.1 318.1 23.3
2002-05-02 08:39:16 51°17.281 2°41.41 36 0.2 253.2 23.4
2002-05-02 08:40:16 51°17.28 2°41.403 34.5 0.3 241.4 23.4
2002-05-02 08:41:16 51°17.277 2°41.395 33.3 0.4 228.8 23.1
2002-05-02 08:42:16 51°17.272 2°41.387 33.8 0.5 221.6 23.3
2002-05-02 08:43:16 51°17.265 2°41.377 35.8 0.5 221.1 23.4
2002-05-02 08:44:15 51°17.258 2°41.368 35.7 0.5 217.8 23.4
2002-05-02 08:45:15 51°17.251 2°41.359 36.8 0.5 217.4 23.4
2002-05-02 08:46:16 51°17.243 2°41.35 38.3 0.5 220.3 23.3
2002-05-02 08:47:16 51°17.235 2°41.341 41.5 0.6 212.7 23.2
2002-05-02 08:48:16 51°17.226 2°41.331 44.5 0.6 214.8 23.1
2002-05-02 08:49:16 51°17.218 2°41.322 45.3 0.6 213.1 23.1
2002-05-02 08:50:16 51°17.209 2°41.311 49 0.7 213.7 23.1
2002-05-02 08:51:16 51°17.199 2°41.301 56.5 0.6 214 23
2002-05-02 08:52:15 51°17.19 2°41.292 61.3 0.6 208.9 23.1
2002-05-02 08:53:16 51°17.181 2°41.284 63 0.6 211.9 23
2002-05-02 08:54:16 51°17.173 2°41.276 62.8 0.5 213.6 22.9
2002-05-02 08:55:16 51°17.166 2°41.268 61.8 0.5 216.7 22.9
2002-05-02 08:56:15 51°17.18 2°41.277 21.7 2 9.4 22.8
2002-05-02 08:57:16 51°17.249 2°41.303 35.5 5.5 26.2 23.1
2002-05-02 08:58:16 51°17.299 2°41.353 50 1.7 34.9 23.1
2002-05-02 08:59:16 51°17.297 2°41.346 72.2 0.4 220.9 23.1
2002-05-02 09:00:15 51°17.29 2°41.337 91.8 0.6 220 23
2002-05-02 09:01:16 51°17.281 2°41.326 97.7 0.7 215.2 22.9
2002-05-02 09:02:16 51°17.27 2°41.315 91.8 0.7 217.5 23.1
2002-05-02 09:03:16 51°17.26 2°41.302 80.3 0.8 220.3 22.9
2002-05-02 09:04:16 51°17.249 2°41.286 72.2 0.9 224.8 23.1
2002-05-02 09:05:16 51°17.238 2°41.268 66.8 0.9 227.6 22.9
2002-05-02 09:06:16 51°17.226 2°41.249 62.5 1 223.7 23
2002-05-02 09:07:16 51°17.213 2°41.229 62.3 1.1 223.1 22.8
2002-05-02 09:08:16 51°17.2 2°41.21 66.5 1 220.7 22.8
2002-05-02 09:09:16 51°17.191 2°41.201 68.8 0.5 193.1 22.9
2002-05-02 09:10:16 51°17.188 2°41.204 63.2 0.2 111.8 22.8
2002-05-02 09:11:16 51°17.189 2°41.211 56.3 0.4 57.6 22.7
2002-05-02 09:12:16 51°17.194 2°41.223 53.7 0.6 53 22.8
2002-05-02 09:13:16 51°17.202 2°41.233 46.8 0.7 29.6 22.8
2002-05-02 09:14:16 51°17.213 2°41.241 43.3 0.8 21.9 22.8
2002-05-02 09:15:16 51°17.223 2°41.25 48.5 0.7 36.2 22.7
2002-05-02 09:16:16 51°17.232 2°41.262 53.7 0.7 45.6 22.8
2002-05-02 09:17:16 51°17.239 2°41.276 59.2 0.7 58 23
2002-05-02 09:18:16 51°17.243 2°41.293 63.8 0.7 71.5 22.8
2002-05-02 09:19:16 51°17.25 2°41.316 56.3 1.9 53.7 22.8
2002-05-02 09:20:16 51°17.33 2°41.298 329.5 7.7 318.6 22.7
2002-05-02 09:21:16 51°17.303 2°41.09 215.3 9.4 219.1 22.5
2002-05-02 09:22:16 51°17.121 2°41.044 195.7 12.5 196.3 22.5
2002-05-02 09:23:16 51°16.898 2°41.007 184.8 13.9 186.2 22.1
2002-05-02 09:24:16 51°16.668 2°40.935 190.2 14.1 189.3 21.2
2002-05-02 09:25:16 51°16.441 2°40.847 196 14.1 196.4 20.1
2002-05-02 09:26:16 51°16.214 2°40.748 194.5 14.1 194.7 18.6
2002-05-02 09:27:16 51°15.985 2°40.668 193 14.1 193.4 17
2002-05-02 09:28:16 51°15.756 2°40.603 184.8 13.9 185.7 14.9
2002-05-02 09:29:16 51°15.527 2°40.596 180.3 13.6 180 12.9
2002-05-02 09:30:16 51°15.306 2°40.647 164.7 13.3 165 10.4
2002-05-02 09:31:16 51°15.091 2°40.731 163.5 13.4 163.2 10.9
2002-05-02 09:32:16 51°14.875 2°40.818 174 13.6 174.5 10.9
2002-05-02 09:33:16 51°14.661 2°40.916 155.7 13.4 157.4 12.1
2002-05-02 09:34:16 51°14.453 2°41.047 156.3 13.4 157.8 12.8
2002-05-02 09:35:16 51°14.255 2°41.143 171.7 10.3 173.1 13.6
2002-05-02 09:36:16 51°14.125 2°41.141 173 6.7 179.8 14.2
2002-05-02 09:37:16 51°14.055 2°41.138 187.5 2 208.6 14.9
2002-05-02 09:38:16 51°14.042 2°41.114 211 1.2 228.8 14.7
2002-05-02 09:39:16 51°14.027 2°41.087 217.5 1.5 225.3 14.6
2002-05-02 09:40:16 51°14.01 2°41.058 219.8 0.8 236.6 14.3
2002-05-02 09:41:17 51°14.028 2°41.064 208 2 12.3 -999
2002-05-02 09:42:17 51°14.076 2°41.07 194.7 3.3 358.7 -999
2002-05-02 09:43:16 51°14.1 2°41.054 161.5 1.3 204 13.7
2002-05-02 09:44:16 51°14.086 2°41.031 137.8 1.2 242.4 14
2002-05-02 09:45:16 51°14.075 2°41.003 132.7 1.2 232.4 13.9
2002-05-02 09:46:16 51°14.06 2°40.982 125.8 1.2 185.6 13.8
2002-05-02 09:47:16 51°14.068 2°41.034 47.2 3.9 41.8 14.2
2002-05-02 09:48:16 51°14.134 2°41.099 33.7 3.5 23 14
2002-05-02 09:49:16 51°14.147 2°41.092 26.7 0.6 302.8 13.6
2002-05-02 09:50:16 51°14.152 2°41.079 25.2 0.6 293.8 13.5
2002-05-02 09:51:16 51°14.153 2°41.064 25.5 0.6 271.9 13.7
2002-05-02 09:52:16 51°14.152 2°41.049 27.5 0.6 258.1 13.7
2002-05-02 09:53:16 51°14.149 2°41.032 30.2 0.7 249.6 13.5
2002-05-02 09:54:16 51°14.145 2°41.015 32.8 0.7 242.6 13.5
2002-05-02 09:55:16 51°14.139 2°40.999 37.5 0.7 235.6 13.7
2002-05-02 09:56:16 51°14.13 2°40.982 42.5 0.8 229.7 13.3
2002-05-02 09:57:16 51°14.122 2°40.966 46 0.8 231.7 13.4
2002-05-02 09:58:16 51°14.113 2°40.949 46.7 0.8 230.5 13.3
2002-05-02 09:59:16 51°14.104 2°40.931 48 0.8 227.9 13.3
2002-05-02 10:00:16 51°14.095 2°40.914 48.8 0.9 231.4 13.6
2002-05-02 10:01:16 51°14.086 2°40.897 48.3 0.9 229.9 13.5
2002-05-02 10:02:16 51°14.076 2°40.878 46.2 0.9 227.6 13.4
2002-05-02 10:03:16 51°14.065 2°40.858 44.3 1 228.1 13.2
2002-05-02 10:04:16 51°14.054 2°40.839 43 0.8 233.3 13.2
2002-05-02 10:05:16 51°14.052 2°40.832 47.5 0.1 280.8 13.3
2002-05-02 10:06:16 51°14.056 2°40.836 52.7 0.5 50.2 13.2
2002-05-02 10:07:16 51°14.063 2°40.855 63.2 1 70.1 13.2
2002-05-02 10:08:16 51°14.066 2°40.886 74 1.4 85.1 13.2
2002-05-02 10:09:16 51°14.064 2°40.926 84.2 1.6 100.8 13.8
2002-05-02 10:10:16 51°14.054 2°40.968 96.7 1.8 116.5 14
2002-05-02 10:11:16 51°14.034 2°41.006 112 1.9 138.1 14.2
2002-05-02 10:12:16 51°14.004 2°41.034 127.3 2.2 156.1 14.6
2002-05-02 10:13:16 51°13.967 2°41.049 144 2.5 170.5 15
2002-05-02 10:14:16 51°13.922 2°41.053 159 2.8 182.1 15
2002-05-02 10:15:16 51°13.859 2°41.031 198.7 5.8 203.7 15.2
2002-05-02 10:16:16 51°13.763 2°40.898 221.7 8.8 221.7 15.3
2002-05-02 10:17:16 51°13.644 2°40.72 224.8 10.6 224.1 15.3
2002-05-02 10:18:16 51°13.512 2°40.517 224.7 11.1 224 14.4
2002-05-02 10:19:16 51°13.378 2°40.313 224.7 11.1 223.7 14.1
2002-05-02 10:20:16 51°13.248 2°40.104 226.7 11.1 225 11.7
2002-05-02 10:21:16 51°13.12 2°39.896 227 11 225.4 12.7
2002-05-02 10:22:16 51°12.99 2°39.689 228 11 225.6 11.8
2002-05-02 10:23:16 51°12.864 2°39.476 228.8 11 226.4 12.5
2002-05-02 10:24:16 51°12.738 2°39.264 229 11 226.6 12
2002-05-02 10:25:16 51°12.612 2°39.051 228.7 11 226.4 12.1
2002-05-02 10:26:16 51°12.485 2°38.838 228.8 11 226.3 12.3
2002-05-02 10:27:16 51°12.359 2°38.628 228.8 10.9 226.3 12.3
2002-05-02 10:28:16 51°12.234 2°38.416 228.7 11 226.1 12.4
2002-05-02 10:29:16 51°12.109 2°38.202 229.7 11 227.3 12.5
2002-05-02 10:30:16 51°11.984 2°37.987 229.5 11.1 226.9 12.5
2002-05-02 10:31:16 51°11.858 2°37.772 229.7 11.1 227 12.6
2002-05-02 10:32:16 51°11.732 2°37.558 229.3 11.1 226.6 12.7
2002-05-02 10:33:16 51°11.607 2°37.343 229.8 11.1 226.8 12.6
2002-05-02 10:34:16 51°11.48 2°37.129 229.3 11.1 226.4 12.1
2002-05-02 10:35:16 51°11.354 2°36.916 229.5 11 226.8 11.8
2002-05-02 10:36:16 51°11.228 2°36.701 229.7 11.1 226.5 11.2
2002-05-02 10:37:16 51°11.101 2°36.487 229.5 11.1 226.8 10.7
2002-05-02 10:38:16 51°10.976 2°36.274 229.5 11 226.6 10.2
2002-05-02 10:39:16 51°10.851 2°36.062 230 11 227 9.8
2002-05-02 10:40:16 51°10.725 2°35.849 230.8 11 227.7 9.4
2002-05-02 10:41:16 51°10.611 2°35.626 233.8 10.9 230.3 8.9
2002-05-02 10:42:16 51°10.495 2°35.403 233.7 10.9 230.5 8.9
2002-05-02 10:43:16 51°10.38 2°35.182 233.8 10.8 230.4 8.9
2002-05-02 10:44:16 51°10.265 2°34.96 233.7 10.8 230.5 9.4
2002-05-02 10:45:16 51°10.152 2°34.739 234 10.8 231 9.6
2002-05-02 10:46:16 51°10.038 2°34.522 233 10.7 229.9 9.5
2002-05-02 10:47:16 51°9.924 2°34.305 232.8 10.7 229.9 9.4
2002-05-02 10:48:16 51°9.81 2°34.087 232.7 10.7 230.2 9.5
2002-05-02 10:49:16 51°9.693 2°33.873 231.7 10.6 229.2 9.4
2002-05-02 10:50:16 51°9.577 2°33.658 231.3 10.6 229.1 9.7
2002-05-02 10:51:16 51°9.459 2°33.445 230.2 10.8 228 10.3
2002-05-02 10:52:16 51°9.341 2°33.229 230.7 10.8 228.4 11
2002-05-02 10:53:16 51°9.226 2°33.042 233.5 8.3 230.7 12.2
2002-05-02 10:54:16 51°9.166 2°32.889 249.5 6 242.1 12.2
2002-05-02 10:55:16 51°9.13 2°32.767 244.5 4.5 239.4 11.7
2002-05-02 10:56:16 51°9.086 2°32.696 206.3 3.4 215.2 12.2
2002-05-02 10:57:16 51°9.041 2°32.663 174.8 2.8 197.4 13.5
2002-05-02 10:58:16 51°9.001 2°32.65 146.3 2.2 184.8 14.9
2002-05-02 10:59:16 51°8.97 2°32.65 121.8 1.6 177.5 16
2002-05-02 11:00:16 51°8.949 2°32.654 97.8 1.1 168.5 16.5
2002-05-02 11:01:16 51°8.94 2°32.664 66.2 0.7 100.1 16.9
2002-05-02 11:02:16 51°8.947 2°32.69 53.7 1.4 52.4 17
2002-05-02 11:03:16 51°8.965 2°32.726 55 1.9 52.3 16.9
2002-05-02 11:04:16 51°8.991 2°32.766 43.8 2.1 37 16
2002-05-02 11:05:16 51°9.026 2°32.783 26.3 2.1 7.8 15.9
2002-05-02 11:06:16 51°9.049 2°32.777 15.2 1.3 336.7 15.1
2002-05-02 11:07:16 51°9.066 2°32.762 18.7 1 329.2 14.2
2002-05-02 11:08:16 51°9.077 2°32.751 27.7 0.6 333.3 13.6
2002-05-02 11:09:16 51°9.084 2°32.751 51.3 0.4 45.1 13.4
2002-05-02 11:10:16 51°9.083 2°32.761 77.8 0.6 125.8 13.7
2002-05-02 11:11:16 51°9.074 2°32.776 84 0.8 128 14.3
2002-05-02 11:12:16 51°9.067 2°32.791 70.3 0.6 117.9 14.9
2002-05-02 11:13:16 51°9.066 2°32.8 50.3 0.3 55.5 15
2002-05-02 11:14:16 51°9.073 2°32.803 36 0.5 6.2 14.7
2002-05-02 11:15:16 51°9.084 2°32.804 34.8 0.7 4 14.4
2002-05-02 11:16:16 51°9.095 2°32.808 45.3 0.6 29.9 14
2002-05-02 11:17:16 51°9.102 2°32.817 42.5 0.6 24.8 13.8
2002-05-02 11:18:16 51°9.109 2°32.823 49 0.3 34.8 13.7
2002-05-02 11:19:16 51°9.11 2°32.825 55.7 0.1 59.8 13.8
2002-05-02 11:20:16 51°9.108 2°32.828 58.8 0.2 161.2 13.9
2002-05-02 11:21:16 51°9.105 2°32.828 61.3 0.2 205.2 14
2002-05-02 11:22:16 51°9.1 2°32.827 63.3 0.3 191.1 14.1
2002-05-02 11:23:16 51°9.094 2°32.826 62.3 0.4 193.1 14.3
2002-05-02 11:24:16 51°9.088 2°32.82 58.8 0.4 206 14.6
2002-05-02 11:25:16 51°9.083 2°32.815 56 0.4 215.3 14.8
2002-05-02 11:26:16 51°9.078 2°32.811 53 0.4 221.6 14.8
2002-05-02 11:27:16 51°9.073 2°32.803 51.2 0.5 216.9 14.8
2002-05-02 11:28:16 51°9.069 2°32.797 53.2 0.2 215.7 15
2002-05-02 11:29:16 51°9.066 2°32.797 59 0.2 136.6 15.1
2002-05-02 11:30:16 51°9.066 2°32.804 59 0.3 73.1 15.2
2002-05-02 11:31:16 51°9.069 2°32.815 52.8 0.5 52.8 15.2
2002-05-02 11:32:16 51°9.077 2°32.826 48.3 0.7 38.2 15.1
2002-05-02 11:33:16 51°9.087 2°32.837 41.2 0.8 23.7 14.9
2002-05-02 11:34:16 51°9.099 2°32.845 33.3 0.8 14.9 14.6
2002-05-02 11:35:16 51°9.113 2°32.847 24.3 0.9 0.5 14.1
2002-05-02 11:36:16 51°9.128 2°32.842 15.7 1 344.9 13.4
2002-05-02 11:37:16 51°9.144 2°32.836 19.2 1 348.4 12.6
2002-05-02 11:38:16 51°9.157 2°32.839 41.2 0.7 29 12.2
2002-05-02 11:39:16 51°9.163 2°32.853 63.3 0.7 81.8 12.3
2002-05-02 11:40:16 51°9.161 2°32.874 85.7 0.9 115.7 12.7
2002-05-02 11:41:16 51°9.149 2°32.895 105.5 1.1 140.8 13.7
2002-05-02 11:42:16 51°9.132 2°32.91 121.7 1.3 155.6 14.5
2002-05-02 11:43:16 51°9.11 2°32.919 144.2 1.5 174 15.5
2002-05-02 11:44:16 51°9.082 2°32.913 170.8 1.8 193.2 16
2002-05-02 11:45:16 51°9.055 2°32.896 190.3 1.8 205.4 16.5
2002-05-02 11:46:16 51°9.016 2°32.862 213 5.1 211.7 17.1
2002-05-02 11:47:16 51°8.901 2°32.744 206 9.6 208.3 18
2002-05-02 11:48:16 51°8.741 2°32.67 191.7 10.3 194.9 18.2
2002-05-02 11:49:16 51°8.576 2°32.571 199.7 10.6 201.6 18.2
2002-05-02 11:50:16 51°8.417 2°32.492 192.2 8.7 195.7 17.9
2002-05-02 11:51:16 51°8.334 2°32.444 169.5 2.6 197.3 17.5
2002-05-02 11:52:16 51°8.309 2°32.446 105.8 3 122.9 17.3
2002-05-02 11:53:16 51°8.356 2°32.497 3 5.3 352.9 17.7
2002-05-02 11:54:16 51°8.419 2°32.472 20.7 2 352.3 18.1
2002-05-02 11:55:16 51°8.424 2°32.463 59.7 0.2 232.7 18.1
2002-05-02 11:56:16 51°8.419 2°32.459 64.2 0.4 204.7 18
2002-05-02 11:57:16 51°8.412 2°32.454 58.3 0.5 211.3 18
2002-05-02 11:58:16 51°8.406 2°32.446 49 0.5 223.2 18
2002-05-02 11:59:16 51°8.399 2°32.435 40.7 0.6 229.1 18
2002-05-02 12:00:16 51°8.393 2°32.422 34.5 0.6 231.6 18.3
2002-05-02 12:01:16 51°8.386 2°32.407 28.7 0.7 233.3 18.4
2002-05-02 12:02:16 51°8.379 2°32.391 23.2 0.8 235.5 18.4
2002-05-02 12:03:16 51°8.371 2°32.375 18.8 0.7 233.2 18.4
2002-05-02 12:04:16 51°8.364 2°32.358 14.7 0.8 232.9 18.4
2002-05-02 12:05:16 51°8.356 2°32.343 13.7 0.7 228.4 18.4
2002-05-02 12:06:16 51°8.348 2°32.33 12.3 0.7 227.1 18.4
2002-05-02 12:07:16 51°8.339 2°32.316 8.7 0.8 227.6 18.3
2002-05-02 12:08:16 51°8.331 2°32.303 8.5 0.7 222.4 18.3
2002-05-02 12:09:16 51°8.344 2°32.309 47.2 3.3 41.1 18.4
2002-05-02 12:10:16 51°8.403 2°32.441 66.2 7.5 62.6 18
2002-05-02 12:11:16 51°8.383 2°32.638 85.2 6.7 89.4 17.4
2002-05-02 12:12:16 51°8.405 2°32.701 33.5 0.2 31.9 17.5
2002-05-02 12:13:16 51°8.408 2°32.698 12.7 0.3 302.5 17.6
2002-05-02 12:14:16 51°8.409 2°32.688 4 0.4 269.2 17.5
2002-05-02 12:15:16 51°8.407 2°32.676 0.2 0.4 258.2 17.3
2002-05-02 12:16:16 51°8.404 2°32.664 359.3 0.5 251.5 17.7
2002-05-02 12:17:16 51°8.4 2°32.651   0.5 242.6 17.7
2002-05-02 12:18:16 51°8.397 2°32.64 1 0.5 238.4 17.6
2002-05-02 12:19:16 51°8.392 2°32.63 2 0.6 232.8 17.8
2002-05-02 12:20:16 51°8.386 2°32.62 4.5 0.5 224.7 17.9
2002-05-02 12:21:16 51°8.381 2°32.61 5.3 0.5 228.2 17.9
2002-05-02 12:22:16 51°8.375 2°32.601 4.7 0.5 228.2 17.9
2002-05-02 12:23:16 51°8.37 2°32.592 4.8 0.4 230.6 17.9
2002-05-02 12:24:16 51°8.365 2°32.582 3 0.5 230.2 17.9
2002-05-02 12:25:16 51°8.363 2°32.573 5.3 0.4 293.4 17.9
2002-05-02 12:26:16 51°8.371 2°32.565 11.8 0.8 342 18.1
2002-05-02 12:27:16 51°8.387 2°32.566 29.2 1.1 16.7 18.3
2002-05-02 12:28:16 51°8.402 2°32.582 47 1.1 43.2 18.2
2002-05-02 12:29:16 51°8.411 2°32.61 64.2 1.3 74.1 18.1
2002-05-02 12:30:16 51°8.412 2°32.649 85.3 1.6 99.3 17.8
2002-05-02 12:31:16 51°8.398 2°32.691 109 1.9 124 17.8
2002-05-02 12:32:16 51°8.372 2°32.728 135.2 2.3 148.6 17.5
2002-05-02 12:33:16 51°8.336 2°32.752 152.5 2.5 163.4 17.3
2002-05-02 12:34:16 51°8.298 2°32.763 164.8 2.1 175.1 16.9
2002-05-02 12:35:16 51°8.265 2°32.763 174.3 1.9 184.9 16.6
2002-05-02 12:36:16 51°8.214 2°32.769 155.8 4.4 162.2 17
2002-05-02 12:37:16 51°8.147 2°32.867 125.3 6.3 129.7 16.7
2002-05-02 12:38:16 51°8.08 2°33.009 125.3 7 128.6 15.8
2002-05-02 12:39:16 51°8.038 2°33.102 89.7 1.7 117.3 14.7
2002-05-02 12:40:16 51°8.032 2°33.119 62.7 0.6 121.9 14.5
2002-05-02 12:41:16 51°8.027 2°33.126 56 0.4 136 14.2
2002-05-02 12:42:16 51°8.023 2°33.132 50.7 0.3 156.7 14
2002-05-02 12:43:16 51°8.03 2°33.139 20.3 1.8 10.2 14.3
2002-05-02 12:44:16 51°8.068 2°33.094 316.3 3.9 304 15.6
2002-05-02 12:45:16 51°8.096 2°33.028 340.5 0.7 273.6 16.1
2002-05-02 12:46:17 51°8.086 2°33.021 18 0.6 195.7 -999
2002-05-02 12:47:17 51°8.077 2°33.017 31.3 0.5 190.6 -999
2002-05-02 12:48:16 51°8.069 2°33.015 34.3 0.5 179.6 16
2002-05-02 12:49:16 51°8.061 2°33.016 36.3 0.5 172.9 15.9
2002-05-02 12:50:16 51°8.052 2°33.017 36.7 0.5 176.1 15.8
2002-05-02 12:51:16 51°8.043 2°33.019 31.7 0.5 170.8 15.6
2002-05-02 12:52:16 51°8.035 2°33.02 26.2 0.5 176.8 15.5
2002-05-02 12:53:16 51°8.027 2°33.021 24.8 0.5 173.3 15.4
2002-05-02 12:54:16 51°8.018 2°33.023 25.2 0.5 172.8 15.1
2002-05-02 12:55:17 51°8.009 2°33.025 26.8 0.6 170.6 14.9
2002-05-02 12:56:16 51°8 2°33.027 29.2 0.6 170.9 14.7
2002-05-02 12:57:16 51°7.991 2°33.03 29 0.6 168.8 14.4
2002-05-02 12:58:16 51°7.98 2°33.032 28.7 0.6 171 13.9
2002-05-02 12:59:16 51°7.971 2°33.034 28.3 0.6 173.3 13.9
2002-05-02 13:00:16 51°7.96 2°33.036 28.8 0.6 169 13.5
2002-05-02 13:01:16 51°7.95 2°33.039 27.7 0.6 170.1 13
2002-05-02 13:02:17 51°7.947 2°33.046 28.5 1.2 38.4 12.7
2002-05-02 13:03:16 51°7.999 2°33.077 15.5 4.4 13.6 14.1
2002-05-02 13:04:16 51°8.066 2°33.043 313.5 3.9 307.2 16
2002-05-02 13:05:16 51°8.074 2°33.002 317.3 0.7 262 16.4
2002-05-02 13:06:16 51°8.071 2°32.987 317.3 0.5 240.1 16.5
2002-05-02 13:07:17 51°8.066 2°32.978 318.5 0.5 216.2 -999
2002-05-02 13:08:17 51°8.06 2°32.973 320 0.4 192.8 16.4
2002-05-02 13:09:16 51°8.052 2°32.971 325.7 0.4 188.4 16.3
2002-05-02 13:10:16 51°8.046 2°32.97 339.3 0.3 183.8 16.2
2002-05-02 13:11:16 51°8.043 2°32.971 358 0.1 118.3 16.2
2002-05-02 13:12:16 51°8.046 2°32.976 16.3 0.4 51.1 16.2
2002-05-02 13:13:17 51°8.053 2°32.987 25 0.7 40.3 16.2
2002-05-02 13:14:16 51°8.063 2°33.001 28.8 0.9 43.4 16.4
2002-05-02 13:15:16 51°8.074 2°33.02 40.3 1.1 53.5 16.5
2002-05-02 13:16:16 51°8.085 2°33.046 50 1.2 59.6 16.6
2002-05-02 13:17:16 51°8.094 2°33.076 59.5 1.3 66.2 16.7
2002-05-02 13:18:17 51°8.102 2°33.112 68.8 1.5 75.4 16.7
2002-05-02 13:19:16 51°8.104 2°33.152 85.2 1.6 91.9 16.5
2002-05-02 13:20:16 51°8.098 2°33.195 106.8 1.7 110.5 16.3
2002-05-02 13:21:17 51°8.08 2°33.235 131.3 1.9 134.7 15.6
2002-05-02 13:22:16 51°8.051 2°33.263 158.8 2.9 158.9 13.9
2002-05-02 13:23:16 51°7.976 2°33.164 253.3 9.2 247.5 12.8
2002-05-02 13:24:17 51°7.947 2°32.84 275.3 13.1 270.9 15.3
2002-05-02 13:25:16 51°7.887 2°32.514 245 13.4 241.4 15.9
2002-05-02 13:26:16 51°7.778 2°32.203 249.5 13.4 246.5 15.2
2002-05-02 13:27:16 51°7.652 2°31.911 234.8 13.4 232.2 14.2
2002-05-02 13:28:16 51°7.505 2°31.644 230.3 13.4 227.2 12.9
2002-05-02 13:29:16 51°7.361 2°31.372 231.8 13.5 228.4 12.2
2002-05-02 13:30:16 51°7.201 2°31.127 219.5 13.5 215.9 11.6
2002-05-02 13:31:17 51°7.006 2°30.949 203.3 13.1 199.7 10.4
2002-05-02 13:32:16 51°6.846 2°30.91 180.2 8.6 176.1 9.7
2002-05-02 13:33:16 51°6.712 2°30.938 180.2 8 174.4 8.9
2002-05-02 13:34:16 51°6.582 2°30.952 179.7 7.8 173.5 8.7
2002-05-02 13:35:16 51°6.461 2°31.023 148.8 7.7 144.8 10.6
2002-05-02 13:36:16 51°6.412 2°31.239 74.5 9.5 74.7 12.5
2002-05-02 13:37:16 51°6.46 2°31.513 77.2 11.3 74.1 12.8
2002-05-02 13:38:16 51°6.55 2°31.778 60.3 11.5 58.1 12.6
2002-05-02 13:39:17 51°6.641 2°32.055 66.2 11.6 63.6 12.3
2002-05-02 13:40:16 51°6.736 2°32.318 63 11.7 60.1 11.6
2002-05-02 13:41:16 51°6.809 2°32.548 66.8 7.5 65.1 11
2002-05-02 13:42:16 51°6.847 2°32.688 67.2 3.9 67.3 10.8
2002-05-02 13:43:17 51°6.849 2°32.715 80.7 0.5 93.4 -999
2002-05-02 13:44:17 51°6.851 2°32.739 76.3 1.1 84.9 -999
2002-05-02 13:45:16 51°6.852 2°32.768 77.2 1 89.9 11.4
2002-05-02 13:46:17 51°6.852 2°32.791 86.7 0.9 91.9 11.5
2002-05-02 13:47:17 51°6.851 2°32.815 96.5 0.9 92.8 11.7
2002-05-02 13:48:16 51°6.851 2°32.838 105.2 0.9 93.1 11.7
2002-05-02 13:49:16 51°6.851 2°32.862 111.7 0.9 90.6 11.7
2002-05-02 13:50:16 51°6.854 2°32.875 118 0.6 344.9 11.7
2002-05-02 13:51:17 51°6.859 2°32.898 100.8 2.7 94.6 11.8
2002-05-02 13:52:16 51°6.859 2°32.947 93 1.7 89.3 11.9
2002-05-02 13:53:16 51°6.861 2°32.976 92.2 0.4 76.8 11.9
2002-05-02 13:54:17 51°6.863 2°32.99 94.5 0.6 80.1 -999
2002-05-02 13:55:16 51°6.865 2°33.004 101.3 0.6 69.2 11.9
2002-05-02 13:56:16 51°6.87 2°33.018 110.8 0.6 68.8 11.9
2002-05-02 13:57:17 51°6.825 2°33.062 201.3 4.5 185.3 11.7
2002-05-02 13:58:17 51°6.804 2°32.951 293.8 5.8 294.4 11.9
2002-05-02 13:59:16 51°6.836 2°32.779 277.3 7.2 277.6 11.9
2002-05-02 14:00:17 51°6.84 2°32.69 271.8 0.5 308.6 11.6
2002-05-02 14:01:16 51°6.844 2°32.682 272.8 0.4 320.7 11.3
2002-05-02 14:02:16 51°6.848 2°32.677 268 0.2 307.6 11.2
2002-05-02 14:03:16 51°6.851 2°32.674 269.8 0.2 322.4 11.1
2002-05-02 14:04:16 51°6.853 2°32.672 270 0.2 345.8 11.4
2002-05-02 14:05:16 51°6.855 2°32.67 266.7 0.1 8.6 11.3
2002-05-02 14:06:16 51°6.856 2°32.672 258.2 0.1 94.6 11.3
2002-05-02 14:07:16 51°6.855 2°32.675 247.8 0.2 126.9 11.4
2002-05-02 14:08:16 51°6.851 2°32.68 245.7 0.3 135.8 11.4
2002-05-02 14:09:16 51°6.848 2°32.686 249 0.3 130.7 11.4
2002-05-02 14:10:16 51°6.846 2°32.692 253.5 0.2 103.8 11.5
2002-05-02 14:11:16 51°6.845 2°32.698 257 0.2 93.9 11.6
2002-05-02 14:12:16 51°6.846 2°32.704 258 0.2 87.9 11.6
2002-05-02 14:13:16 51°6.846 2°32.71 258.5 0.3 73.8 11.7
2002-05-02 14:14:17 51°6.847 2°32.716 259.2 0.3 71.1 11.7
2002-05-02 14:15:16 51°6.849 2°32.723 260.5 0.3 66.2 11.8
2002-05-02 14:16:16 51°6.851 2°32.729 260.8 0.2 63.3 11.8
2002-05-02 14:17:16 51°6.853 2°32.736 261 0.3 67 11.8
2002-05-02 14:18:16 51°6.855 2°32.742 259.8 0.1 73.9 11.8
2002-05-02 14:19:16 51°6.856 2°32.744 260.7   14.3 12
2002-05-02 14:20:16 51°6.857 2°32.741 262.5 0.2 314.2 11.8
2002-05-02 14:21:16 51°6.86 2°32.738 263.8 0.2 310.5 11.8
2002-05-02 14:22:16 51°6.862 2°32.731 263.3 0.3 293.7 11.7
2002-05-02 14:23:16 51°6.864 2°32.723 262.3 0.4 291.4 11.5
2002-05-02 14:24:16 51°6.865 2°32.714 261.5 0.3 285.3 11.5
2002-05-02 14:25:17 51°6.866 2°32.706 261.8 0.3 298.9 11.3
2002-05-02 14:26:16 51°6.868 2°32.698 262 0.4 275.8 11.2
2002-05-02 14:27:16 51°6.838 2°32.622 231.5 5.2 224.6 11.7
2002-05-02 14:28:16 51°6.752 2°32.452 248 9.6 243.7 12.8
2002-05-02 14:29:17 51°6.711 2°32.193 259.2 10 257.1 12.7
2002-05-02 14:30:16 51°6.643 2°31.956 244.7 10 242.3 13.2
2002-05-02 14:31:16 51°6.553 2°31.73 242 10.1 237.6 13.8
2002-05-02 14:32:17 51°6.492 2°31.482 269.2 10 267.5 13.5
2002-05-02 14:33:17 51°6.515 2°31.215 277.3 10.3 277.3 11.8
2002-05-02 14:34:16 51°6.574 2°30.99 287 8 289.8 9.8
2002-05-02 14:35:16 51°6.678 2°30.909 0.5 7.8 3.6 10.2
2002-05-02 14:36:17 51°6.815 2°30.953 20.5 8.5 21.5 10.7
2002-05-02 14:37:16 51°6.936 2°31.08 34.8 8.9 35.4 11.2
2002-05-02 14:38:17 51°7.071 2°31.275 48.2 13.4 46.2 11.1
2002-05-02 14:39:16 51°7.221 2°31.564 53.5 14.7 50.9 11.3
2002-05-02 14:40:16 51°7.378 2°31.867 54.3 14.8 51.5 12.5
2002-05-02 14:41:16 51°7.529 2°32.175 57.3 14.8 54.2 12.3
2002-05-02 14:42:16 51°7.676 2°32.492 56.2 14.9 53.2 13.2
2002-05-02 14:43:16 51°7.827 2°32.804 55.8 14.8 52.7 13.9
2002-05-02 14:44:16 51°7.972 2°33.123 57.3 15 54.1 14.6
2002-05-02 14:45:16 51°8.113 2°33.448 56.3 15 54.1 15.8
2002-05-02 14:46:16 51°8.254 2°33.776 58.2 15.1 55.8 16.9
2002-05-02 14:47:17 51°8.395 2°34.115 60.7 15.1 57.8 17.8
2002-05-02 14:48:16 51°8.504 2°34.468 67.2 15.3 63.5 17.3
2002-05-02 14:49:16 51°8.605 2°34.835 74.7 15.2 70.4 16.1
2002-05-02 14:50:16 51°8.681 2°35.219 75.2 15.2 71.5 14.3
2002-05-02 14:51:16 51°8.764 2°35.599 75 15.2 71.3 13.3
2002-05-02 14:52:16 51°8.845 2°35.979 75.2 15.1 71.6 12.6
2002-05-02 14:53:16 51°8.928 2°36.358 75 15.1 71.4 12.3
2002-05-02 14:54:17 51°9.009 2°36.742 74.8 15 71.5 12.3
2002-05-02 14:55:17 51°9.064 2°37.052 62.8 8.9 63.4 12.5
2002-05-02 14:56:17 51°9.136 2°37.137 356.3 2.3 39.7 13.1
2002-05-02 14:57:16 51°9.155 2°37.164 316 2.5 352.4 13.2
2002-05-02 14:58:17 51°9.174 2°37.181 291.5 1.3 50 13.5
2002-05-02 14:59:16 51°9.186 2°37.196 273.5 0.7 27.3 13.5
2002-05-02 15:00:16 51°9.19 2°37.198 252.7 0.1 289.5 13.6
2002-05-02 15:01:17 51°9.186 2°37.193 243.8 0.5 210.4 13.6
2002-05-02 15:02:17 51°9.177 2°37.183 241 0.8 214.2 13.5
2002-05-02 15:03:16 51°9.166 2°37.175 238.2 0.6 195.6 13.4
2002-05-02 15:04:16 51°9.158 2°37.175 235.8 0.6 167.5 13.3
2002-05-02 15:05:17 51°9.15 2°37.182 233.5 0.5 135.8 13.3
2002-05-02 15:06:17 51°9.143 2°37.193 233.8 0.5 120.9 13.2
2002-05-02 15:07:16 51°9.139 2°37.207 234.3 0.6 108.7 13.2
2002-05-02 15:08:16 51°9.137 2°37.224 235.3 0.7 104.1 13.2
2002-05-02 15:09:16 51°9.137 2°37.242 237 0.7 98.3 13.1
2002-05-02 15:10:17 51°9.136 2°37.262 235.8 0.8 92.6 13.1
2002-05-02 15:11:17 51°9.136 2°37.283 235.7 0.8 91 13.1
2002-05-02 15:12:17 51°9.136 2°37.304 236.8 0.8 88.7 13
2002-05-02 15:13:17 51°9.137 2°37.326 238 0.8 82.5 13
2002-05-02 15:14:16 51°9.138 2°37.347 239.2 0.7 85.1 13.1
2002-05-02 15:15:17 51°9.136 2°37.362 236 0.5 113.9 13
2002-05-02 15:16:17 51°9.124 2°37.364 226.3 1.3 192.2 12.9
2002-05-02 15:17:17 51°9.102 2°37.35 230.2 1.1 199.4 12.8
2002-05-02 15:18:16 51°9.09 2°37.345 239.7 0.5 196.7 12.7
2002-05-02 15:19:16 51°9.087 2°37.346 250.2 0.1 111.3 12.7
2002-05-02 15:20:16 51°9.088 2°37.352 259 0.3 55.5 12.7
2002-05-02 15:21:17 51°9.093 2°37.362 269.5 0.6 44.7 12.7
2002-05-02 15:22:16 51°9.101 2°37.375 277.8 0.7 47.7 12.8
2002-05-02 15:23:17 51°9.109 2°37.391 286.3 0.8 50 12.8
2002-05-02 15:24:17 51°9.123 2°37.398 294.8 1.2 345.1 12.9
2002-05-02 15:25:17 51°9.139 2°37.4 300.2 1 13.5 13.1
2002-05-02 15:26:16 51°9.156 2°37.407 301.5 1.1 20.5 13.1
2002-05-02 15:27:17 51°9.172 2°37.42 300.3 1.1 26.7 13.2
2002-05-02 15:28:16 51°9.186 2°37.432 299.2 1.1 31.4 13.3
2002-05-02 15:29:16 51°9.2 2°37.449 298.2 1 36.4 13.3
2002-05-02 15:30:16 51°9.212 2°37.429 265.8 2.3 274.5 13.5
2002-05-02 15:31:17 51°9.17 2°37.365 228.7 4.7 218.7 13.3
2002-05-02 15:32:17 51°9.107 2°37.271 232.2 4.9 224.2 12.8
2002-05-02 15:33:16 51°9.081 2°37.23 252.5 0.1 152.4 12.8
2002-05-02 15:34:16 51°9.084 2°37.233 269.8 0.4 30.3 12.8
2002-05-02 15:35:17 51°9.091 2°37.24 273.8 0.5 36.2 12.8
2002-05-02 15:36:17 51°9.1 2°37.25 274.8 0.7 39.1 12.8
2002-05-02 15:37:17 51°9.108 2°37.256 275 0.5 2.6 12.9
2002-05-02 15:38:16 51°9.117 2°37.25 273.7 0.6 322.7 13
2002-05-02 15:39:16 51°9.126 2°37.235 272.2 0.8 307.5 13.1
2002-05-02 15:40:16 51°9.133 2°37.215 271.2 1 301.8 13.1
2002-05-02 15:41:17 51°9.141 2°37.191 273.7 1.1 299 13.3
2002-05-02 15:42:17 51°9.151 2°37.166 278.5 1.2 307.6 13.3
2002-05-02 15:43:17 51°9.165 2°37.143 284.3 1.2 314.7 13.5
2002-05-02 15:44:16 51°9.184 2°37.122 291.3 1.4 330.5 13.8
2002-05-02 15:45:17 51°9.205 2°37.109 298 1.5 342.5 13.9
2002-05-02 15:46:17 51°9.23 2°37.101 305.7 1.6 350.2 14.5
2002-05-02 15:47:16 51°9.257 2°37.1 313.8 1.7 359 14.9
2002-05-02 15:48:17 51°9.287 2°37.108 322.5 1.9 12.7 15.2
2002-05-02 15:49:17 51°9.327 2°37.122 346.2 3.6 10 15.7
2002-05-02 15:50:17 51°9.418 2°37.25 63.2 10.7 59.3 16.1
2002-05-02 15:51:16 51°9.515 2°37.583 70.8 15.1 67.1 15.8
2002-05-02 15:52:17 51°9.616 2°37.961 71.3 15.2 67.2 15.5
2002-05-02 15:53:17 51°9.716 2°38.334 71.3 15.3 67.1 15.2
2002-05-02 15:54:16 51°9.815 2°38.699 71.2 15.2 67.2 15
2002-05-02 15:55:17 51°9.916 2°39.075 71 15.2 66.9 14.9
2002-05-02 15:56:17 51°10.016 2°39.443 70.8 15.1 67 14.7
2002-05-02 15:57:16 51°10.113 2°39.805 70.7 15.1 66.6 14.3
2002-05-02 15:58:17 51°10.213 2°40.176 70.7 15.1 66.7 14.5
2002-05-02 15:59:17 51°10.311 2°40.543 71.2 15 67.3 14.5
2002-05-02 16:00:17 51°10.409 2°40.909 70.8 15 67.3 14.6
2002-05-02 16:01:17 51°10.506 2°41.275 70.7 15 67 14.5
2002-05-02 16:02:17 51°10.603 2°41.64 70.3 14.9 66.8 14.4
2002-05-02 16:03:17 51°10.701 2°42.004 71.3 15 67.6 14.3
2002-05-02 16:04:17 51°10.799 2°42.369 70.7 14.9 66.9 14.7
2002-05-02 16:05:17 51°10.896 2°42.732 70.8 15 66.8 14.9
2002-05-02 16:06:17 51°10.993 2°43.097 70.7 14.9 66.9 15
2002-05-02 16:07:17 51°11.089 2°43.46 71 14.9 67.1 15
2002-05-02 16:08:17 51°11.185 2°43.821 70.7 14.9 67.1 15
2002-05-02 16:09:17 51°11.282 2°44.185 70.7 14.9 67.2 15.1
2002-05-02 16:10:17 51°11.374 2°44.554 72.8 15 69.2 15.2
2002-05-02 16:11:17 51°11.464 2°44.926 72.8 15 69 15.2
2002-05-02 16:12:17 51°11.554 2°45.295 72.8 15 68.8 15.3
2002-05-02 16:13:17 51°11.644 2°45.665 72.8 14.9 69 15.4
2002-05-02 16:14:17 51°11.734 2°46.033 72.8 15 68.9 15.2
2002-05-02 16:15:17 51°11.825 2°46.404 72.8 15 68.8 15.4
2002-05-02 16:16:17 51°11.916 2°46.774 72.5 15.1 68.3 15.1
2002-05-02 16:17:17 51°12.009 2°47.147 72.8 15 68.5 14.7
2002-05-02 16:18:17 51°12.101 2°47.514 70.7 14.9 66.8 14.9
2002-05-02 16:19:17 51°12.203 2°47.875 68.3 15 64.4 14.8
2002-05-02 16:20:17 51°12.313 2°48.233 67.7 15 63.9 14.6
2002-05-02 16:21:17 51°12.42 2°48.595 68.2 15.1 64.1 14.4
2002-05-02 16:22:17 51°12.55 2°48.936 58.3 15.1 55.3 14.3
2002-05-02 16:23:17 51°12.689 2°49.272 61 15.2 57.9 14.3
2002-05-02 16:24:17 51°12.824 2°49.609 61.5 15 58.5 14.1
2002-05-02 16:25:17 51°12.96 2°49.946 62.2 15.1 58.6 14.1
2002-05-02 16:26:17 51°13.095 2°50.285 61.3 15.1 57.9 14
2002-05-02 16:27:17 51°13.232 2°50.623 61.7 15.2 58.3 13.9
2002-05-02 16:28:17 51°13.368 2°50.961 61.7 15.1 58.4 13.8
2002-05-02 16:29:17 51°13.502 2°51.299 61.5 15.1 58.3 13.7
2002-05-02 16:30:17 51°13.639 2°51.636 61.8 15.2 58 13.5
2002-05-02 16:31:17 51°13.776 2°51.974 63.3 15.2 58.6 13.3
2002-05-02 16:32:17 51°13.919 2°52.305 56.8 15.2 53.8 13.3
2002-05-02 16:33:17 51°14.064 2°52.636 66.7 15.3 61.4 13.3
2002-05-02 16:34:17 51°14.178 2°52.996 67.3 15.2 62.7 12.9
2002-05-02 16:35:16 51°14.267 2°53.355 72 14.2 67.1 12.5
2002-05-02 16:36:17 51°14.352 2°53.7 76.3 13.6 71.1 12.4
2002-05-02 16:37:17 51°14.406 2°54.047 84.8 13.4 78.3 12.1
2002-05-02 16:38:16 51°14.427 2°54.392 94.7 13.2 87.4 12.1
2002-05-02 16:39:17 51°14.423 2°54.732 99.8 12.4 92.6 12.5
2002-05-02 16:40:17 51°14.37 2°55.038 125.7 11.6 118.3 12.5
2002-05-02 16:41:16 51°14.274 2°55.236 134.8 7.7 131.1 13.2
2002-05-02 16:42:17 51°14.197 2°55.346 144.5 5.2 140.9 13.2
2002-05-02 16:43:16 51°14.137 2°55.413 154.5 4.1 150.1 13.1
2002-05-02 16:44:17 51°14.076 2°55.462 158.5 4 154.9 13.2
2002-05-02 16:45:16 51°14.016 2°55.502 161.5 3.9 158.7 13.2
2002-05-02 16:46:17 51°13.952 2°55.544 158.3 4.2 156 12.6
2002-05-02 16:47:17 51°13.886 2°55.596 155.2 4.5 152.1 12.3
2002-05-02 16:48:17 51°13.821 2°55.64 162.3 4 158.9 12.9
2002-05-02 16:49:17 51°13.77 2°55.685 145.3 3.2 143.5 12.5
2002-05-02 16:50:16 51°13.736 2°55.738 131.8 2.7 129.9 12.6
2002-05-02 16:51:16 51°13.713 2°55.794 122.5 2.4 119.9 12.4
2002-05-02 16:52:17 51°13.696 2°55.849 114.3 2.1 111 11.9
2002-05-02 16:53:17 51°13.688 2°55.892 108 1 101.8 10.4
2002-05-02 16:54:16 51°13.687 2°55.901 114.7 0.4 114.6 10.3